sensor_id;sensor_type;location;lat;lon;timestamp;pressure;altitude;pressure_sealevel;temperature;humidity
38054;BME280;23859;50.672;7.164;2023-03-22T00:01:14;96607.41;;;10.38;100.00
38054;BME280;23859;50.672;7.164;2023-03-22T00:03:41;96597.13;;;10.30;100.00
38054;BME280;23859;50.672;7.164;2023-03-22T00:06:08;96611.25;;;10.19;100.00
38054;BME280;23859;50.672;7.164;2023-03-22T00:08:34;96601.31;;;10.26;100.00
38054;BME280;23859;50.672;7.164;2023-03-22T00:11:01;96610.44;;;10.07;100.00
38054;BME280;23859;50.672;7.164;2023-03-22T00:13:27;96611.81;;;9.98;100.00
38054;BME280;23859;50.672;7.164;2023-03-22T00:15:54;96606.28;;;9.77;100.00
38054;BME280;23859;50.672;7.164;2023-03-22T00:18:22;96601.88;;;9.71;100.00
38054;BME280;23859;50.672;7.164;2023-03-22T00:20:50;96595.41;;;9.55;100.00
38054;BME280;23859;50.672;7.164;2023-03-22T00:23:17;96596.78;;;9.46;100.00
38054;BME280;23859;50.672;7.164;2023-03-22T00:25:44;96587.94;;;9.41;100.00
38054;BME280;23859;50.672;7.164;2023-03-22T00:28:10;96582.94;;;9.33;100.00
38054;BME280;23859;50.672;7.164;2023-03-22T00:30:37;96479.47;;;8.71;100.00
38054;BME280;23859;50.672;7.164;2023-03-22T00:33:04;96581.13;;;9.45;100.00
38054;BME280;23859;50.672;7.164;2023-03-22T00:35:30;96586.19;;;9.35;100.00
38054;BME280;23859;50.672;7.164;2023-03-22T00:37:56;96577.66;;;9.33;100.00
38054;BME280;23859;50.672;7.164;2023-03-22T00:40:22;96576.97;;;9.37;100.00
38054;BME280;23859;50.672;7.164;2023-03-22T00:42:48;96571.22;;;9.40;100.00
38054;BME280;23859;50.672;7.164;2023-03-22T00:45:14;96572.94;;;9.58;100.00
38054;BME280;23859;50.672;7.164;2023-03-22T00:47:40;96570.28;;;9.46;100.00
38054;BME280;23859;50.672;7.164;2023-03-22T00:50:07;96572.34;;;9.44;100.00
38054;BME280;23859;50.672;7.164;2023-03-22T00:52:33;96563.03;;;9.42;100.00
38054;BME280;23859;50.672;7.164;2023-03-22T00:54:59;96560.84;;;9.50;100.00
38054;BME280;23859;50.672;7.164;2023-03-22T00:57:25;96559.25;;;9.49;100.00
38054;BME280;23859;50.672;7.164;2023-03-22T00:59:51;96552.91;;;9.50;100.00
38054;BME280;23859;50.672;7.164;2023-03-22T01:02:19;96544.38;;;9.48;100.00
38054;BME280;23859;50.672;7.164;2023-03-22T01:04:45;96545.75;;;9.62;100.00
38054;BME280;23859;50.672;7.164;2023-03-22T01:07:16;96457.84;;;8.97;100.00
38054;BME280;23859;50.672;7.164;2023-03-22T01:09:43;96534.25;;;9.57;100.00
38054;BME280;23859;50.672;7.164;2023-03-22T01:12:10;96533.34;;;9.63;100.00
38054;BME280;23859;50.672;7.164;2023-03-22T01:14:37;96543.47;;;9.66;100.00
38054;BME280;23859;50.672;7.164;2023-03-22T01:17:03;96540.78;;;9.77;100.00
38054;BME280;23859;50.672;7.164;2023-03-22T01:19:29;96536.66;;;9.81;100.00
38054;BME280;23859;50.672;7.164;2023-03-22T01:21:55;96537.94;;;9.79;100.00
38054;BME280;23859;50.672;7.164;2023-03-22T01:24:22;96541.97;;;9.70;100.00
38054;BME280;23859;50.672;7.164;2023-03-22T01:26:48;96444.06;;;9.18;100.00
38054;BME280;23859;50.672;7.164;2023-03-22T01:29:15;96541.50;;;10.07;100.00
38054;BME280;23859;50.672;7.164;2023-03-22T01:31:41;96540.81;;;10.00;100.00
38054;BME280;23859;50.672;7.164;2023-03-22T01:34:07;96527.91;;;9.92;100.00
38054;BME280;23859;50.672;7.164;2023-03-22T01:36:33;96525.78;;;9.94;100.00
38054;BME280;23859;50.672;7.164;2023-03-22T01:39:00;96520.50;;;9.94;100.00
38054;BME280;23859;50.672;7.164;2023-03-22T01:41:27;96515.41;;;10.04;100.00
38054;BME280;23859;50.672;7.164;2023-03-22T01:44:15;96519.78;;;10.10;100.00
38054;BME280;23859;50.672;7.164;2023-03-22T01:46:46;96526.91;;;10.21;100.00
38054;BME280;23859;50.672;7.164;2023-03-22T01:49:28;96518.75;;;10.11;100.00
38054;BME280;23859;50.672;7.164;2023-03-22T01:52:02;96517.44;;;10.25;100.00
38054;BME280;23859;50.672;7.164;2023-03-22T01:54:38;96514.44;;;10.33;100.00
38054;BME280;23859;50.672;7.164;2023-03-22T01:57:07;96510.16;;;10.32;100.00
38054;BME280;23859;50.672;7.164;2023-03-22T01:59:33;96504.94;;;10.48;100.00
38054;BME280;23859;50.672;7.164;2023-03-22T02:02:00;96516.34;;;10.49;100.00
38054;BME280;23859;50.672;7.164;2023-03-22T02:04:34;96513.41;;;10.62;100.00
38054;BME280;23859;50.672;7.164;2023-03-22T02:07:05;96511.31;;;10.63;100.00
38054;BME280;23859;50.672;7.164;2023-03-22T02:09:36;96503.81;;;10.61;100.00
38054;BME280;23859;50.672;7.164;2023-03-22T02:15:42;96503.25;;;10.59;100.00
38054;BME280;23859;50.672;7.164;2023-03-22T02:18:27;96505.78;;;10.81;100.00
38054;BME280;23859;50.672;7.164;2023-03-22T02:26:58;96500.31;;;10.71;100.00
38054;BME280;23859;50.672;7.164;2023-03-22T02:29:39;96486.53;;;10.74;100.00
38054;BME280;23859;50.672;7.164;2023-03-22T02:35:32;96503.00;;;11.04;100.00
38054;BME280;23859;50.672;7.164;2023-03-22T02:44:03;96500.91;;;11.06;100.00
38054;BME280;23859;50.672;7.164;2023-03-22T02:46:40;96500.03;;;11.17;100.00
38054;BME280;23859;50.672;7.164;2023-03-22T02:49:36;96501.06;;;11.16;100.00
38054;BME280;23859;50.672;7.164;2023-03-22T02:52:13;96501.09;;;11.32;99.86
38054;BME280;23859;50.672;7.164;2023-03-22T02:57:28;96498.31;;;11.44;98.73
38054;BME280;23859;50.672;7.164;2023-03-22T02:59:59;96497.59;;;11.32;99.20
38054;BME280;23859;50.672;7.164;2023-03-22T03:02:28;96480.06;;;11.31;99.66
38054;BME280;23859;50.672;7.164;2023-03-22T03:04:55;96485.59;;;11.29;99.15
38054;BME280;23859;50.672;7.164;2023-03-22T03:07:25;96485.28;;;11.26;99.73
38054;BME280;23859;50.672;7.164;2023-03-22T03:09:52;96481.75;;;11.21;100.00
38054;BME280;23859;50.672;7.164;2023-03-22T03:12:21;96484.91;;;11.18;100.00
38054;BME280;23859;50.672;7.164;2023-03-22T03:14:48;96477.06;;;11.11;100.00
38054;BME280;23859;50.672;7.164;2023-03-22T03:25:58;96379.19;;;10.38;100.00
38054;BME280;23859;50.672;7.164;2023-03-22T03:28:50;96458.72;;;10.77;100.00
38054;BME280;23859;50.672;7.164;2023-03-22T03:32:00;96459.84;;;10.81;100.00
38054;BME280;23859;50.672;7.164;2023-03-22T03:36:46;96454.59;;;10.69;100.00
38054;BME280;23859;50.672;7.164;2023-03-22T03:39:16;96455.81;;;10.78;100.00
38054;BME280;23859;50.672;7.164;2023-03-22T03:41:45;96460.00;;;10.74;100.00
38054;BME280;23859;50.672;7.164;2023-03-22T03:44:14;96450.00;;;10.65;100.00
38054;BME280;23859;50.672;7.164;2023-03-22T03:46:41;96449.03;;;10.55;100.00
38054;BME280;23859;50.672;7.164;2023-03-22T03:49:09;96448.31;;;10.59;100.00
38054;BME280;23859;50.672;7.164;2023-03-22T03:51:46;96456.03;;;10.61;100.00
38054;BME280;23859;50.672;7.164;2023-03-22T03:54:12;96455.09;;;10.66;100.00
38054;BME280;23859;50.672;7.164;2023-03-22T03:56:38;96460.97;;;10.85;100.00
38054;BME280;23859;50.672;7.164;2023-03-22T03:59:05;96456.63;;;10.79;100.00
38054;BME280;23859;50.672;7.164;2023-03-22T04:01:33;96457.19;;;10.81;100.00
38054;BME280;23859;50.672;7.164;2023-03-22T04:04:00;96468.22;;;10.89;100.00
38054;BME280;23859;50.672;7.164;2023-03-22T04:06:26;96463.38;;;10.86;100.00
38054;BME280;23859;50.672;7.164;2023-03-22T04:08:52;96468.03;;;10.79;100.00
38054;BME280;23859;50.672;7.164;2023-03-22T04:11:19;96460.00;;;10.74;100.00
38054;BME280;23859;50.672;7.164;2023-03-22T04:13:45;96455.19;;;10.71;100.00
38054;BME280;23859;50.672;7.164;2023-03-22T04:16:11;96454.94;;;10.73;100.00
38054;BME280;23859;50.672;7.164;2023-03-22T04:18:37;96462.72;;;10.79;100.00
38054;BME280;23859;50.672;7.164;2023-03-22T04:21:07;96459.75;;;10.76;100.00
38054;BME280;23859;50.672;7.164;2023-03-22T04:23:34;96463.34;;;10.70;100.00
38054;BME280;23859;50.672;7.164;2023-03-22T04:26:00;96468.38;;;10.66;100.00
38054;BME280;23859;50.672;7.164;2023-03-22T04:28:26;96466.28;;;10.85;100.00
38054;BME280;23859;50.672;7.164;2023-03-22T04:30:52;96457.44;;;10.79;100.00
38054;BME280;23859;50.672;7.164;2023-03-22T04:33:19;96446.78;;;10.63;100.00
38054;BME280;23859;50.672;7.164;2023-03-22T04:35:47;96452.19;;;10.68;100.00
38054;BME280;23859;50.672;7.164;2023-03-22T04:38:14;96461.09;;;10.46;100.00
38054;BME280;23859;50.672;7.164;2023-03-22T04:40:41;96371.63;;;9.74;100.00
38054;BME280;23859;50.672;7.164;2023-03-22T04:43:11;96451.50;;;10.17;100.00
38054;BME280;23859;50.672;7.164;2023-03-22T04:45:37;96449.69;;;10.06;100.00
38054;BME280;23859;50.672;7.164;2023-03-22T04:48:04;96445.44;;;9.93;100.00
38054;BME280;23859;50.672;7.164;2023-03-22T04:50:32;96447.09;;;9.83;100.00
38054;BME280;23859;50.672;7.164;2023-03-22T04:52:58;96436.47;;;9.83;100.00
38054;BME280;23859;50.672;7.164;2023-03-22T04:55:24;96436.63;;;9.77;100.00
38054;BME280;23859;50.672;7.164;2023-03-22T04:57:52;96441.47;;;9.68;100.00
38054;BME280;23859;50.672;7.164;2023-03-22T05:00:19;96426.25;;;9.75;100.00
38054;BME280;23859;50.672;7.164;2023-03-22T05:02:46;96436.47;;;9.83;100.00
38054;BME280;23859;50.672;7.164;2023-03-22T05:05:13;96417.03;;;9.66;100.00
38054;BME280;23859;50.672;7.164;2023-03-22T05:07:39;96418.19;;;9.70;100.00
38054;BME280;23859;50.672;7.164;2023-03-22T05:10:06;96421.31;;;9.67;100.00
38054;BME280;23859;50.672;7.164;2023-03-22T05:12:32;96420.81;;;9.82;100.00
38054;BME280;23859;50.672;7.164;2023-03-22T05:14:58;96415.28;;;9.83;100.00
38054;BME280;23859;50.672;7.164;2023-03-22T05:17:25;96420.44;;;10.01;100.00
38054;BME280;23859;50.672;7.164;2023-03-22T05:19:51;96417.09;;;10.05;100.00
38054;BME280;23859;50.672;7.164;2023-03-22T05:22:18;96430.22;;;10.28;100.00
38054;BME280;23859;50.672;7.164;2023-03-22T05:24:47;96430.88;;;10.19;100.00
38054;BME280;23859;50.672;7.164;2023-03-22T05:27:13;96426.13;;;10.21;100.00
38054;BME280;23859;50.672;7.164;2023-03-22T05:29:39;96422.59;;;10.32;100.00
38054;BME280;23859;50.672;7.164;2023-03-22T05:32:10;96421.94;;;10.25;100.00
38054;BME280;23859;50.672;7.164;2023-03-22T05:34:37;96419.34;;;10.13;100.00
38054;BME280;23859;50.672;7.164;2023-03-22T05:37:03;96418.41;;;10.19;100.00
38054;BME280;23859;50.672;7.164;2023-03-22T05:39:29;96413.88;;;10.20;100.00
38054;BME280;23859;50.672;7.164;2023-03-22T05:41:56;96410.81;;;10.11;100.00
38054;BME280;23859;50.672;7.164;2023-03-22T05:44:22;96408.28;;;10.16;100.00
38054;BME280;23859;50.672;7.164;2023-03-22T05:46:48;96419.28;;;10.25;100.00
38054;BME280;23859;50.672;7.164;2023-03-22T05:49:14;96416.03;;;10.06;100.00
38054;BME280;23859;50.672;7.164;2023-03-22T05:51:40;96427.06;;;10.15;100.00
38054;BME280;23859;50.672;7.164;2023-03-22T05:54:08;96426.25;;;10.14;100.00
38054;BME280;23859;50.672;7.164;2023-03-22T05:56:35;96433.38;;;10.25;100.00
38054;BME280;23859;50.672;7.164;2023-03-22T05:59:02;96353.78;;;9.70;100.00
38054;BME280;23859;50.672;7.164;2023-03-22T06:01:28;96443.63;;;10.50;100.00
38054;BME280;23859;50.672;7.164;2023-03-22T06:03:54;96439.00;;;10.73;100.00
38054;BME280;23859;50.672;7.164;2023-03-22T06:06:20;96428.53;;;10.66;100.00
38054;BME280;23859;50.672;7.164;2023-03-22T06:08:46;96442.53;;;10.78;100.00
38054;BME280;23859;50.672;7.164;2023-03-22T06:11:12;96353.78;;;10.25;100.00
38054;BME280;23859;50.672;7.164;2023-03-22T06:13:38;96437.47;;;11.10;100.00
38054;BME280;23859;50.672;7.164;2023-03-22T06:16:05;96448.81;;;11.05;100.00
38054;BME280;23859;50.672;7.164;2023-03-22T06:18:31;96443.09;;;10.97;100.00
38054;BME280;23859;50.672;7.164;2023-03-22T06:20:58;96445.88;;;11.02;100.00
38054;BME280;23859;50.672;7.164;2023-03-22T06:23:24;96439.41;;;11.14;100.00
38054;BME280;23859;50.672;7.164;2023-03-22T06:25:50;96441.84;;;11.37;99.00
38054;BME280;23859;50.672;7.164;2023-03-22T06:28:17;96444.63;;;11.42;99.87
38054;BME280;23859;50.672;7.164;2023-03-22T06:30:43;96457.72;;;11.48;98.40
38054;BME280;23859;50.672;7.164;2023-03-22T06:33:09;96451.78;;;11.41;99.43
38054;BME280;23859;50.672;7.164;2023-03-22T06:35:35;96450.41;;;11.39;98.64
38054;BME280;23859;50.672;7.164;2023-03-22T06:38:01;96450.59;;;11.32;98.64
38054;BME280;23859;50.672;7.164;2023-03-22T06:40:28;96449.34;;;11.40;98.90
38054;BME280;23859;50.672;7.164;2023-03-22T06:42:54;96457.09;;;11.58;97.63
38054;BME280;23859;50.672;7.164;2023-03-22T06:45:21;96454.81;;;11.50;98.14
38054;BME280;23859;50.672;7.164;2023-03-22T06:47:47;96458.94;;;11.41;98.60
38054;BME280;23859;50.672;7.164;2023-03-22T06:50:15;96461.81;;;11.39;99.28
38054;BME280;23859;50.672;7.164;2023-03-22T06:52:41;96453.81;;;11.51;98.35
38054;BME280;23859;50.672;7.164;2023-03-22T06:55:07;96457.09;;;11.58;97.95
38054;BME280;23859;50.672;7.164;2023-03-22T06:57:33;96462.56;;;11.51;98.81
38054;BME280;23859;50.672;7.164;2023-03-22T06:59:59;96464.75;;;11.54;98.48
38054;BME280;23859;50.672;7.164;2023-03-22T07:02:25;96463.53;;;11.62;98.07
38054;BME280;23859;50.672;7.164;2023-03-22T07:04:51;96466.19;;;11.62;98.22
38054;BME280;23859;50.672;7.164;2023-03-22T07:07:22;96437.47;;;11.64;98.28
38054;BME280;23859;50.672;7.164;2023-03-22T07:09:48;96462.03;;;11.87;97.45
38054;BME280;23859;50.672;7.164;2023-03-22T07:12:14;96466.28;;;12.09;94.50
38054;BME280;23859;50.672;7.164;2023-03-22T07:14:41;96460.94;;;12.31;93.70
38054;BME280;23859;50.672;7.164;2023-03-22T07:17:07;96470.09;;;12.87;89.34
38054;BME280;23859;50.672;7.164;2023-03-22T07:19:33;96464.13;;;13.07;88.43
38054;BME280;23859;50.672;7.164;2023-03-22T07:21:59;96464.69;;;13.45;86.50
38054;BME280;23859;50.672;7.164;2023-03-22T07:24:26;96478.75;;;14.18;82.77
38054;BME280;23859;50.672;7.164;2023-03-22T07:26:52;96482.09;;;14.60;77.77
38054;BME280;23859;50.672;7.164;2023-03-22T07:29:18;96486.94;;;14.67;77.68
38054;BME280;23859;50.672;7.164;2023-03-22T07:31:44;96485.53;;;14.55;75.16
38054;BME280;23859;50.672;7.164;2023-03-22T07:34:10;96470.28;;;14.41;75.79
38054;BME280;23859;50.672;7.164;2023-03-22T07:36:36;96471.53;;;14.23;76.90
38054;BME280;23859;50.672;7.164;2023-03-22T07:39:03;96459.50;;;14.16;78.13
38054;BME280;23859;50.672;7.164;2023-03-22T07:41:30;96462.28;;;14.41;76.33
38054;BME280;23859;50.672;7.164;2023-03-22T07:43:57;96466.56;;;14.47;75.11
38054;BME280;23859;50.672;7.164;2023-03-22T07:46:23;96433.63;;;14.16;74.27
38054;BME280;23859;50.672;7.164;2023-03-22T07:48:49;96461.53;;;14.60;72.80
38054;BME280;23859;50.672;7.164;2023-03-22T07:51:15;96447.28;;;14.35;72.72
38054;BME280;23859;50.672;7.164;2023-03-22T07:53:41;96463.41;;;14.79;72.05
38054;BME280;23859;50.672;7.164;2023-03-22T07:56:08;96460.72;;;14.74;72.01
38054;BME280;23859;50.672;7.164;2023-03-22T07:58:34;96460.78;;;14.89;70.71
38054;BME280;23859;50.672;7.164;2023-03-22T08:01:05;96457.06;;;15.00;68.93
38054;BME280;23859;50.672;7.164;2023-03-22T08:03:37;96457.56;;;14.97;68.86
38054;BME280;23859;50.672;7.164;2023-03-22T08:06:05;96453.28;;;14.91;68.78
38054;BME280;23859;50.672;7.164;2023-03-22T08:08:33;96443.94;;;15.04;68.25
38054;BME280;23859;50.672;7.164;2023-03-22T08:11:02;96451.97;;;15.14;68.52
38054;BME280;23859;50.672;7.164;2023-03-22T08:13:28;96465.59;;;14.92;68.39
38054;BME280;23859;50.672;7.164;2023-03-22T08:15:55;96442.81;;;14.60;69.21
38054;BME280;23859;50.672;7.164;2023-03-22T08:18:21;96442.75;;;14.45;69.69
38054;BME280;23859;50.672;7.164;2023-03-22T08:20:53;96434.75;;;14.50;69.61
38054;BME280;23859;50.672;7.164;2023-03-22T08:23:19;96434.50;;;14.47;69.40
38054;BME280;23859;50.672;7.164;2023-03-22T08:25:45;96435.06;;;14.59;69.25
38054;BME280;23859;50.672;7.164;2023-03-22T08:28:11;96440.97;;;14.90;67.37
38054;BME280;23859;50.672;7.164;2023-03-22T08:30:38;96353.31;;;14.87;65.73
38054;BME280;23859;50.672;7.164;2023-03-22T08:33:04;96459.88;;;16.08;63.84
38054;BME280;23859;50.672;7.164;2023-03-22T08:35:31;96462.22;;;16.19;62.65
38054;BME280;23859;50.672;7.164;2023-03-22T08:37:57;96468.91;;;16.85;60.36
38054;BME280;23859;50.672;7.164;2023-03-22T08:40:23;96480.06;;;17.73;57.44
38054;BME280;23859;50.672;7.164;2023-03-22T08:42:49;96483.13;;;17.29;56.57
38054;BME280;23859;50.672;7.164;2023-03-22T08:45:16;96468.19;;;16.69;58.16
38054;BME280;23859;50.672;7.164;2023-03-22T08:47:43;96361.78;;;15.49;60.34
38054;BME280;23859;50.672;7.164;2023-03-22T08:50:10;96457.94;;;16.18;60.21
38054;BME280;23859;50.672;7.164;2023-03-22T08:52:36;96463.69;;;16.65;58.71
38054;BME280;23859;50.672;7.164;2023-03-22T08:55:03;96495.78;;;18.60;54.51
38054;BME280;23859;50.672;7.164;2023-03-22T08:57:30;96527.41;;;20.41;49.47
38054;BME280;23859;50.672;7.164;2023-03-22T08:59:56;96544.31;;;22.06;45.43
38054;BME280;23859;50.672;7.164;2023-03-22T09:02:23;96560.75;;;22.40;44.16
38054;BME280;23859;50.672;7.164;2023-03-22T09:04:49;96548.81;;;22.19;44.55
38054;BME280;23859;50.672;7.164;2023-03-22T09:07:16;96553.50;;;21.13;46.35
38054;BME280;23859;50.672;7.164;2023-03-22T09:09:43;96541.09;;;20.31;46.03
38054;BME280;23859;50.672;7.164;2023-03-22T09:12:09;96438.22;;;18.97;49.17
38054;BME280;23859;50.672;7.164;2023-03-22T09:14:35;96518.81;;;19.12;50.15
38054;BME280;23859;50.672;7.164;2023-03-22T09:17:02;96512.09;;;18.86;50.18
38054;BME280;23859;50.672;7.164;2023-03-22T09:19:28;96509.75;;;18.62;49.64
38054;BME280;23859;50.672;7.164;2023-03-22T09:21:54;96510.19;;;19.10;51.09
38054;BME280;23859;50.672;7.164;2023-03-22T09:24:20;96508.63;;;18.21;50.71
38054;BME280;23859;50.672;7.164;2023-03-22T09:26:47;96499.41;;;17.99;51.43
38054;BME280;23859;50.672;7.164;2023-03-22T09:29:13;96493.91;;;17.85;52.10
38054;BME280;23859;50.672;7.164;2023-03-22T09:31:39;96503.97;;;18.50;50.68
38054;BME280;23859;50.672;7.164;2023-03-22T09:34:05;96510.41;;;19.50;48.54
38054;BME280;23859;50.672;7.164;2023-03-22T09:36:31;96507.91;;;19.54;47.19
38054;BME280;23859;50.672;7.164;2023-03-22T09:38:59;96504.44;;;19.35;48.35
38054;BME280;23859;50.672;7.164;2023-03-22T09:41:53;96489.75;;;18.26;50.72
38054;BME280;23859;50.672;7.164;2023-03-22T09:44:25;96495.84;;;18.96;49.14
38054;BME280;23859;50.672;7.164;2023-03-22T09:46:54;96442.66;;;19.57;48.02
38054;BME280;23859;50.672;7.164;2023-03-22T09:49:25;96497.97;;;19.68;47.29
38054;BME280;23859;50.672;7.164;2023-03-22T09:51:54;96500.94;;;19.85;46.56
38054;BME280;23859;50.672;7.164;2023-03-22T09:54:29;96503.19;;;19.78;46.22
38054;BME280;23859;50.672;7.164;2023-03-22T09:59:52;96500.25;;;20.38;45.80
38054;BME280;23859;50.672;7.164;2023-03-22T10:05:36;96493.25;;;20.77;45.33
38054;BME280;23859;50.672;7.164;2023-03-22T10:10:39;96490.34;;;20.33;47.31
38054;BME280;23859;50.672;7.164;2023-03-22T10:13:35;96481.53;;;19.83;49.39
38054;BME280;23859;50.672;7.164;2023-03-22T10:16:09;96486.31;;;20.98;45.06
38054;BME280;23859;50.672;7.164;2023-03-22T10:18:42;96498.41;;;21.36;45.46
38054;BME280;23859;50.672;7.164;2023-03-22T10:21:13;96489.84;;;20.31;44.98
38054;BME280;23859;50.672;7.164;2023-03-22T10:23:41;96479.97;;;19.82;46.74
38054;BME280;23859;50.672;7.164;2023-03-22T10:26:20;96477.06;;;19.78;50.01
38054;BME280;23859;50.672;7.164;2023-03-22T10:28:59;96479.41;;;19.98;46.72
38054;BME280;23859;50.672;7.164;2023-03-22T10:31:29;96396.50;;;19.90;47.94
38054;BME280;23859;50.672;7.164;2023-03-22T10:34:03;96497.34;;;20.61;44.99
38054;BME280;23859;50.672;7.164;2023-03-22T10:36:33;96488.63;;;20.37;45.00
38054;BME280;23859;50.672;7.164;2023-03-22T10:39:48;96412.13;;;20.33;43.84
38054;BME280;23859;50.672;7.164;2023-03-22T10:41:51;96496.78;;;21.13;45.78
38054;BME280;23859;50.672;7.164;2023-03-22T10:44:19;96507.63;;;21.35;42.22
38054;BME280;23859;50.672;7.164;2023-03-22T10:46:47;96478.41;;;19.12;47.01
38054;BME280;23859;50.672;7.164;2023-03-22T10:49:24;96498.03;;;20.26;45.91
38054;BME280;23859;50.672;7.164;2023-03-22T10:51:55;96482.19;;;19.30;46.81
38054;BME280;23859;50.672;7.164;2023-03-22T10:54:24;96481.81;;;19.36;47.48
38054;BME280;23859;50.672;7.164;2023-03-22T10:56:51;96487.72;;;20.02;46.79
38054;BME280;23859;50.672;7.164;2023-03-22T10:59:51;96471.81;;;19.37;46.52
38054;BME280;23859;50.672;7.164;2023-03-22T11:02:27;96489.13;;;19.81;46.19
38054;BME280;23859;50.672;7.164;2023-03-22T11:04:56;96472.81;;;19.09;48.46
38054;BME280;23859;50.672;7.164;2023-03-22T11:07:35;96455.34;;;18.65;49.10
38054;BME280;23859;50.672;7.164;2023-03-22T11:12:48;96450.66;;;17.87;50.71
38054;BME280;23859;50.672;7.164;2023-03-22T11:15:30;96456.94;;;18.01;52.96
38054;BME280;23859;50.672;7.164;2023-03-22T11:18:05;96475.91;;;18.37;49.62
38054;BME280;23859;50.672;7.164;2023-03-22T11:20:32;96471.28;;;18.43;50.73
38054;BME280;23859;50.672;7.164;2023-03-22T11:23:02;96461.47;;;18.05;49.59
38054;BME280;23859;50.672;7.164;2023-03-22T11:25:34;96457.28;;;17.94;50.68
38054;BME280;23859;50.672;7.164;2023-03-22T11:30:31;96454.22;;;17.77;51.79
38054;BME280;23859;50.672;7.164;2023-03-22T11:35:45;96447.72;;;17.27;52.00
38054;BME280;23859;50.672;7.164;2023-03-22T11:38:26;96453.22;;;17.68;50.33
38054;BME280;23859;50.672;7.164;2023-03-22T11:41:00;96439.66;;;17.27;52.28
38054;BME280;23859;50.672;7.164;2023-03-22T11:43:31;96430.69;;;17.41;51.30
38054;BME280;23859;50.672;7.164;2023-03-22T11:45:59;96434.16;;;17.41;51.99
38054;BME280;23859;50.672;7.164;2023-03-22T11:48:29;96424.94;;;17.19;52.76
38054;BME280;23859;50.672;7.164;2023-03-22T11:51:10;96434.97;;;17.42;51.68
38054;BME280;23859;50.672;7.164;2023-03-22T11:53:39;96431.50;;;17.36;51.63
38054;BME280;23859;50.672;7.164;2023-03-22T11:56:09;96422.28;;;16.81;52.01
38054;BME280;23859;50.672;7.164;2023-03-22T11:58:43;96432.19;;;16.80;52.36
38054;BME280;23859;50.672;7.164;2023-03-22T12:01:17;96428.25;;;16.68;54.96
38054;BME280;23859;50.672;7.164;2023-03-22T12:03:47;96428.75;;;16.75;53.27
38054;BME280;23859;50.672;7.164;2023-03-22T12:06:21;96429.00;;;16.78;53.55
38054;BME280;23859;50.672;7.164;2023-03-22T12:08:59;96428.28;;;16.63;53.72
38054;BME280;23859;50.672;7.164;2023-03-22T12:11:39;96421.53;;;16.27;53.12
38054;BME280;23859;50.672;7.164;2023-03-22T12:14:07;96411.41;;;16.63;53.60
38054;BME280;23859;50.672;7.164;2023-03-22T12:16:58;96411.75;;;16.46;53.72
38054;BME280;23859;50.672;7.164;2023-03-22T12:19:42;96413.19;;;16.72;53.17
38054;BME280;23859;50.672;7.164;2023-03-22T12:22:17;96418.91;;;17.04;52.90
38054;BME280;23859;50.672;7.164;2023-03-22T12:24:44;96421.88;;;17.36;53.47
38054;BME280;23859;50.672;7.164;2023-03-22T12:27:41;96418.28;;;17.12;53.17
38054;BME280;23859;50.672;7.164;2023-03-22T12:30:15;96328.25;;;16.24;53.71
38054;BME280;23859;50.672;7.164;2023-03-22T12:35:40;96417.34;;;16.98;53.34
38054;BME280;23859;50.672;7.164;2023-03-22T12:38:25;96416.69;;;16.72;55.16
38054;BME280;23859;50.672;7.164;2023-03-22T12:40:56;96424.44;;;16.79;53.62
38054;BME280;23859;50.672;7.164;2023-03-22T12:46:14;96409.00;;;16.56;56.65
38054;BME280;23859;50.672;7.164;2023-03-22T12:48:47;96310.88;;;15.69;55.50
38054;BME280;23859;50.672;7.164;2023-03-22T12:51:14;96392.63;;;16.09;55.06
38054;BME280;23859;50.672;7.164;2023-03-22T12:53:43;96394.44;;;15.51;59.53
38054;BME280;23859;50.672;7.164;2023-03-22T12:56:17;96385.84;;;15.64;57.75
38054;BME280;23859;50.672;7.164;2023-03-22T12:58:50;96382.06;;;15.65;58.65
38054;BME280;23859;50.672;7.164;2023-03-22T13:01:38;96335.09;;;15.29;56.56
38054;BME280;23859;50.672;7.164;2023-03-22T13:09:49;96395.22;;;15.51;60.49
38054;BME280;23859;50.672;7.164;2023-03-22T13:15:26;96399.53;;;15.37;60.26
38054;BME280;23859;50.672;7.164;2023-03-22T13:17:45;96392.84;;;15.35;59.51
38054;BME280;23859;50.672;7.164;2023-03-22T13:30:35;96403.56;;;15.35;60.53
38054;BME280;23859;50.672;7.164;2023-03-22T13:33:14;96396.88;;;15.28;62.36
38054;BME280;23859;50.672;7.164;2023-03-22T13:35:46;96394.97;;;15.38;61.41
38054;BME280;23859;50.672;7.164;2023-03-22T13:38:39;96397.41;;;15.39;60.55
38054;BME280;23859;50.672;7.164;2023-03-22T13:41:16;96393.91;;;15.44;61.17
38054;BME280;23859;50.672;7.164;2023-03-22T13:43:48;96394.97;;;15.53;60.09
38054;BME280;23859;50.672;7.164;2023-03-22T14:02:27;96340.09;;;15.60;60.06
38054;BME280;23859;50.672;7.164;2023-03-22T14:05:03;96346.47;;;15.69;60.12
38054;BME280;23859;50.672;7.164;2023-03-22T14:07:42;96345.47;;;15.50;62.10
38054;BME280;23859;50.672;7.164;2023-03-22T14:12:53;96352.66;;;15.55;61.14
38054;BME280;23859;50.672;7.164;2023-03-22T14:15:27;96347.84;;;15.62;61.80
38054;BME280;23859;50.672;7.164;2023-03-22T14:18:07;96344.59;;;15.70;60.40
38054;BME280;23859;50.672;7.164;2023-03-22T14:20:38;96345.69;;;15.69;60.28
38054;BME280;23859;50.672;7.164;2023-03-22T14:26:37;96333.88;;;15.65;61.03
38054;BME280;23859;50.672;7.164;2023-03-22T14:29:16;96323.75;;;15.62;60.74
38054;BME280;23859;50.672;7.164;2023-03-22T14:31:44;96335.19;;;15.82;60.92
38054;BME280;23859;50.672;7.164;2023-03-22T14:34:14;96336.16;;;16.01;59.62
38054;BME280;23859;50.672;7.164;2023-03-22T14:36:43;96334.28;;;16.01;58.74
38054;BME280;23859;50.672;7.164;2023-03-22T14:39:19;96338.00;;;16.05;58.83
38054;BME280;23859;50.672;7.164;2023-03-22T14:42:05;96330.44;;;16.17;58.84
38054;BME280;23859;50.672;7.164;2023-03-22T14:44:41;96337.09;;;16.25;58.60
38054;BME280;23859;50.672;7.164;2023-03-22T14:47:19;96345.38;;;16.33;59.20